LJPZ/POW METAR and TAF weather

Enter ICAO airport designator
Station Type Date Time Source
LJPZ METAR 2019/10/23 08:00 UTC NOAA

LJPZ 230800Z 13003KT 9999 FEW005 SCT220 18/16 Q1020


Station Type Date Time Source
LJPZ Decoded METAR 2019/10/23 08:00 UTC NOAA

Portoroz, Slovenia (LJPZ) 45-31N 013-34E
Oct 23, 2019 - 04:00 AM EDT / 2019.10.23 0800 UTC
Wind: from the SE (130 degrees) at 3 MPH (3 KT):0
Visibility: greater than 7 mile(s):0
Sky conditions: partly cloudy
Temperature: 64 F (18 C)
Dew Point: 60 F (16 C)
Relative Humidity: 88%
Pressure (altimeter): 30.12 in. Hg (1020 hPa)
ob: LJPZ 230800Z 13003KT 9999 FEW005 SCT220 18/16 Q1020
cycle: 8

Station Type Date Time Source
LJPZ TAF 2008/06/02 05:30 UTC NOAA

TAF TAF LJPZ 020530Z 021615 VRB02KT 6000 NSC
BECMG 0911 30005KT 9999 FEW040

Example: see airport list